createdAt,value
2022-08-27T00:01:43.054Z,9.18
2022-08-27T00:04:50.645Z,10.85
2022-08-27T00:07:55.210Z,10.03
2022-08-27T00:11:01.655Z,7.85
2022-08-27T00:14:08.199Z,8.45
2022-08-27T00:17:14.424Z,9.18
2022-08-27T00:20:43.099Z,7.85
2022-08-27T00:23:48.921Z,9.73
2022-08-27T00:26:57.471Z,11.53
2022-08-27T00:30:06.100Z,10.95
2022-08-27T00:33:11.676Z,11.08
2022-08-27T00:36:18.221Z,11.43
2022-08-27T00:39:24.480Z,12.00
2022-08-27T00:42:31.478Z,12.10
2022-08-27T00:45:38.481Z,9.50
2022-08-27T00:48:47.390Z,8.10
2022-08-27T00:51:53.959Z,8.28
2022-08-27T00:55:00.536Z,9.10
2022-08-27T00:58:17.445Z,7.33
2022-08-27T01:01:26.314Z,10.15
2022-08-27T01:04:34.383Z,9.58
2022-08-27T01:07:43.762Z,9.25
2022-08-27T01:10:52.340Z,9.78
2022-08-27T01:14:00.982Z,10.88
2022-08-27T01:17:13.377Z,8.10
2022-08-27T01:20:22.804Z,12.50
2022-08-27T01:24:09.118Z,11.22
2022-08-27T01:27:16.549Z,9.38
2022-08-27T01:30:22.978Z,10.43
2022-08-27T01:33:30.784Z,15.90
2022-08-27T01:36:35.711Z,9.18
2022-08-27T01:39:41.574Z,11.93
2022-08-27T01:42:54.494Z,8.93
2022-08-27T01:46:03.455Z,9.13
2022-08-27T01:49:11.541Z,8.68
2022-08-27T01:52:18.659Z,11.22
2022-08-27T01:55:26.345Z,22.25
2022-08-27T01:58:33.921Z,16.95
2022-08-27T02:01:39.679Z,11.88
2022-08-27T02:04:47.065Z,14.95
2022-08-27T02:07:54.040Z,13.48
2022-08-27T02:11:01.659Z,10.10
2022-08-27T02:14:12.926Z,14.55
2022-08-27T02:17:19.191Z,16.90
2022-08-27T02:20:29.189Z,30.12
2022-08-27T02:23:35.927Z,24.35
2022-08-27T02:26:42.195Z,16.75
2022-08-27T02:29:49.693Z,10.35
2022-08-27T02:32:56.695Z,12.15
2022-08-27T02:36:03.447Z,12.30
2022-08-27T02:39:09.506Z,10.10
2022-08-27T02:42:15.048Z,10.13
2022-08-27T02:45:21.333Z,13.32
2022-08-27T02:48:28.618Z,11.80
2022-08-27T02:51:33.752Z,13.98
2022-08-27T02:54:41.765Z,14.90
2022-08-27T02:57:50.473Z,11.75
2022-08-27T03:00:59.860Z,10.78
2022-08-27T03:04:05.579Z,12.00
2022-08-27T03:07:18.706Z,11.28
2022-08-27T03:10:21.793Z,12.18
2022-08-27T03:13:31.231Z,12.78
2022-08-27T03:16:36.882Z,12.30
2022-08-27T03:19:44.602Z,14.05
2022-08-27T03:22:50.147Z,11.20
2022-08-27T03:26:06.552Z,20.12
2022-08-27T03:29:12.732Z,12.50
2022-08-27T03:32:20.510Z,16.42
2022-08-27T03:35:29.565Z,19.05
2022-08-27T03:38:36.224Z,12.00
2022-08-27T03:41:54.111Z,14.58
2022-08-27T03:44:49.986Z,14.28
2022-08-27T03:47:59.375Z,11.53
2022-08-27T03:51:04.969Z,15.08
2022-08-27T03:54:10.819Z,18.92
2022-08-27T03:57:17.621Z,11.10
2022-08-27T04:00:24.953Z,16.15
2022-08-27T04:03:30.941Z,11.18
2022-08-27T04:06:36.397Z,12.15
2022-08-27T04:09:44.713Z,13.03
2022-08-27T04:12:50.926Z,11.90
2022-08-27T04:16:03.986Z,16.70
2022-08-27T04:19:22.915Z,15.58
2022-08-27T04:22:29.031Z,19.87
2022-08-27T04:25:35.760Z,14.68
2022-08-27T04:28:42.614Z,14.87
2022-08-27T04:31:50.692Z,14.47
2022-08-27T04:34:57.576Z,15.48
2022-08-27T04:38:04.457Z,18.12
2022-08-27T04:41:30.896Z,12.58
2022-08-27T04:44:37.987Z,13.62
2022-08-27T04:47:44.152Z,13.65
2022-08-27T04:50:49.785Z,11.95
2022-08-27T04:53:57.520Z,15.63
2022-08-27T04:57:05.511Z,18.17
2022-08-27T05:00:14.557Z,12.33
2022-08-27T05:03:21.925Z,13.00
2022-08-27T05:06:28.241Z,15.32
2022-08-27T05:09:34.135Z,13.68
2022-08-27T05:13:02.033Z,14.25
2022-08-27T05:16:17.946Z,12.35
2022-08-27T05:19:26.426Z,11.97
2022-08-27T05:22:32.297Z,16.12
2022-08-27T05:25:39.197Z,13.78
2022-08-27T05:28:44.622Z,16.55
2022-08-27T05:31:51.496Z,18.25
2022-08-27T05:34:58.074Z,9.58
2022-08-27T05:38:03.129Z,14.98
2022-08-27T05:41:23.727Z,18.20
2022-08-27T05:44:46.569Z,13.18
2022-08-27T05:47:44.867Z,15.32
2022-08-27T05:50:46.580Z,11.15
2022-08-27T05:53:53.175Z,14.75
2022-08-27T05:57:01.385Z,15.45
2022-08-27T06:00:27.565Z,18.75
2022-08-27T06:03:33.864Z,16.00
2022-08-27T06:06:42.219Z,15.80
2022-08-27T06:09:48.705Z,17.73
2022-08-27T06:12:57.020Z,20.92
2022-08-27T06:16:04.324Z,13.28
2022-08-27T06:19:12.885Z,15.00
2022-08-27T06:22:19.940Z,16.37
2022-08-27T06:25:25.963Z,15.20
2022-08-27T06:28:37.662Z,16.35
2022-08-27T06:31:44.469Z,10.48
2022-08-27T06:34:50.431Z,13.62
2022-08-27T06:37:56.753Z,14.75
2022-08-27T06:41:02.955Z,11.78
2022-08-27T06:44:09.469Z,14.55
2022-08-27T06:47:16.558Z,14.87
2022-08-27T06:50:28.938Z,12.33
2022-08-27T06:53:35.549Z,13.98
2022-08-27T06:56:40.800Z,11.25
2022-08-27T06:59:48.593Z,13.15
2022-08-27T07:02:54.576Z,11.57
2022-08-27T07:05:59.981Z,12.78
2022-08-27T07:09:05.857Z,12.20
2022-08-27T07:12:12.147Z,12.65
2022-08-27T07:15:21.748Z,11.10
2022-08-27T07:18:27.892Z,10.53
2022-08-27T07:21:33.329Z,10.10
2022-08-27T07:24:39.483Z,11.30
2022-08-27T07:27:46.254Z,9.65
2022-08-27T07:30:52.989Z,11.95
2022-08-27T07:33:53.410Z,12.18
2022-08-27T07:36:59.990Z,9.95
2022-08-27T07:40:06.672Z,15.40
2022-08-27T07:43:31.087Z,10.23
2022-08-27T07:46:40.091Z,8.93
2022-08-27T07:49:45.226Z,10.10
2022-08-27T07:52:53.197Z,11.22
2022-08-27T07:55:58.394Z,11.30
2022-08-27T07:59:06.446Z,8.60
2022-08-27T08:02:12.392Z,9.40
2022-08-27T08:05:20.995Z,8.20
2022-08-27T08:08:26.626Z,7.45
2022-08-27T08:11:33.670Z,8.90
2022-08-27T08:14:39.204Z,10.68
2022-08-27T08:17:47.310Z,12.78
2022-08-27T08:20:58.578Z,8.30
2022-08-27T08:24:04.094Z,12.55
2022-08-27T08:27:09.535Z,9.83
2022-08-27T08:30:09.362Z,8.43
2022-08-27T08:33:17.487Z,7.78
2022-08-27T08:36:27.168Z,12.82
2022-08-27T08:39:35.565Z,11.73
2022-08-27T08:42:59.424Z,11.38
2022-08-27T08:46:05.638Z,5.87
2022-08-27T08:49:13.459Z,16.77
2022-08-27T08:52:45.289Z,11.43
2022-08-27T08:56:17.074Z,7.70
2022-08-27T08:59:42.625Z,15.03
2022-08-27T09:02:49.114Z,10.95
2022-08-27T09:05:55.809Z,10.40
2022-08-27T09:09:02.023Z,9.35
2022-08-27T09:12:19.637Z,8.60
2022-08-27T09:15:40.039Z,10.25
2022-08-27T09:18:45.739Z,6.33
2022-08-27T09:22:32.027Z,5.40
2022-08-27T09:25:48.623Z,4.10
2022-08-27T09:29:14.426Z,8.85
2022-08-27T09:32:23.184Z,7.75
2022-08-27T09:38:44.671Z,8.73
2022-08-27T09:42:00.912Z,4.60
2022-08-27T09:45:08.552Z,8.33
2022-08-27T09:48:26.635Z,8.15
2022-08-27T09:51:43.131Z,5.10
2022-08-27T09:55:01.544Z,9.58
2022-08-27T09:58:08.971Z,9.88
2022-08-27T10:01:21.733Z,7.42
2022-08-27T10:04:30.242Z,9.25
2022-08-27T10:08:14.606Z,8.93
2022-08-27T10:11:33.419Z,17.12
2022-08-27T10:14:46.683Z,9.75
2022-08-27T10:18:17.500Z,8.43
2022-08-27T10:21:55.537Z,9.53
2022-08-27T10:25:11.328Z,9.40
2022-08-27T10:29:07.604Z,10.38
2022-08-27T10:32:52.257Z,7.08
2022-08-27T10:36:06.141Z,8.13
2022-08-27T10:39:22.647Z,9.88
2022-08-27T10:42:45.630Z,10.60
2022-08-27T10:46:14.195Z,12.40
2022-08-27T10:49:27.479Z,4.75
2022-08-27T10:56:03.676Z,9.45
2022-08-27T10:59:23.484Z,13.18
2022-08-27T11:02:42.659Z,11.73
2022-08-27T11:05:58.990Z,9.78
2022-08-27T11:09:14.930Z,13.28
2022-08-27T11:12:25.450Z,13.90
2022-08-27T11:15:42.839Z,9.80
2022-08-27T11:19:18.989Z,11.68
2022-08-27T11:22:36.515Z,8.03
2022-08-27T11:26:02.854Z,10.20
2022-08-27T11:29:15.856Z,8.68
2022-08-27T11:32:33.148Z,9.45
2022-08-27T11:35:46.607Z,13.08
2022-08-27T11:39:14.212Z,10.13
2022-08-27T11:42:45.143Z,12.47
2022-08-27T11:46:08.629Z,10.25
2022-08-27T11:52:23.338Z,18.15
2022-08-27T11:55:46.164Z,9.50
2022-08-27T11:58:52.662Z,9.60
2022-08-27T12:02:00.215Z,13.20
2022-08-27T12:05:05.732Z,7.22
2022-08-27T12:08:12.280Z,11.30
2022-08-27T12:11:29.386Z,9.93
2022-08-27T12:14:53.024Z,15.03
2022-08-27T12:18:25.264Z,9.73
2022-08-27T12:22:03.110Z,10.28
2022-08-27T12:25:10.382Z,10.48
2022-08-27T12:28:18.742Z,8.43
2022-08-27T12:31:23.540Z,7.00
2022-08-27T12:34:38.328Z,8.75
2022-08-27T12:37:48.278Z,12.58
2022-08-27T12:41:19.129Z,13.55
2022-08-27T12:44:24.643Z,9.93
2022-08-27T12:47:30.545Z,5.85
2022-08-27T12:50:45.081Z,15.75
2022-08-27T12:53:57.395Z,11.90
2022-08-27T12:57:13.061Z,7.15
2022-08-27T13:00:32.904Z,11.68
2022-08-27T13:03:54.276Z,13.65
2022-08-27T13:07:01.083Z,11.65
2022-08-27T13:10:08.560Z,8.75
2022-08-27T13:13:31.207Z,9.63
2022-08-27T13:16:40.072Z,9.93
2022-08-27T13:19:54.353Z,13.88
2022-08-27T13:23:00.478Z,9.93
2022-08-27T13:26:18.799Z,9.80
2022-08-27T13:29:25.536Z,7.72
2022-08-27T13:32:31.844Z,10.58
2022-08-27T13:35:39.777Z,11.08
2022-08-27T13:38:50.351Z,11.57
2022-08-27T13:41:59.836Z,9.75
2022-08-27T13:45:05.232Z,8.78
2022-08-27T13:48:12.092Z,5.58
2022-08-27T13:51:19.212Z,10.80
2022-08-27T13:54:26.803Z,12.37
2022-08-27T13:57:45.566Z,10.63
2022-08-27T14:00:53.515Z,9.65
2022-08-27T14:04:07.049Z,10.05
2022-08-27T14:07:16.536Z,15.38
2022-08-27T14:10:34.839Z,9.88
2022-08-27T14:13:43.401Z,12.05
2022-08-27T14:16:48.685Z,16.07
2022-08-27T14:19:57.549Z,12.82
2022-08-27T14:23:05.160Z,7.00
2022-08-27T14:26:15.060Z,9.78
2022-08-27T14:29:21.375Z,14.07
2022-08-27T14:32:27.719Z,9.95
2022-08-27T14:35:39.628Z,12.30
2022-08-27T14:38:47.651Z,12.78
2022-08-27T14:41:54.591Z,6.55
2022-08-27T14:44:59.344Z,7.67
2022-08-27T14:48:06.968Z,8.30
2022-08-27T14:51:20.667Z,8.28
2022-08-27T14:54:29.095Z,11.35
2022-08-27T14:57:34.985Z,11.75
2022-08-27T15:00:39.984Z,8.45
2022-08-27T15:03:46.928Z,8.98
2022-08-27T15:06:52.693Z,11.78
2022-08-27T15:10:00.796Z,12.73
2022-08-27T15:13:07.920Z,13.08
2022-08-27T15:16:16.016Z,8.13
2022-08-27T15:19:22.643Z,12.50
2022-08-27T15:22:36.431Z,11.97
2022-08-27T15:25:43.496Z,11.73
2022-08-27T15:28:48.287Z,9.50
2022-08-27T15:31:56.698Z,12.80
2022-08-27T15:35:03.903Z,13.65
2022-08-27T15:38:11.168Z,12.78
2022-08-27T15:41:17.315Z,14.00
2022-08-27T15:44:24.114Z,14.87
2022-08-27T15:47:29.516Z,12.93
2022-08-27T15:50:35.510Z,12.00
2022-08-27T15:53:40.945Z,10.80
2022-08-27T15:56:46.921Z,9.48
2022-08-27T15:59:52.126Z,14.68
2022-08-27T16:02:58.523Z,11.40
2022-08-27T16:06:05.709Z,12.28
2022-08-27T16:09:11.309Z,14.78
2022-08-27T16:12:26.785Z,13.08
2022-08-27T16:15:27.157Z,12.30
2022-08-27T16:18:32.895Z,15.15
2022-08-27T16:21:32.253Z,14.30
2022-08-27T16:24:38.319Z,9.83
2022-08-27T16:27:43.966Z,12.78
2022-08-27T16:30:51.056Z,11.73
2022-08-27T16:33:57.498Z,11.00
2022-08-27T16:37:05.310Z,10.10
2022-08-27T16:40:15.403Z,13.58
2022-08-27T16:43:22.605Z,16.67
2022-08-27T16:46:28.278Z,16.82
2022-08-27T16:49:52.790Z,10.95
2022-08-27T16:52:58.955Z,13.08
2022-08-27T16:56:07.379Z,16.25
2022-08-27T16:59:14.931Z,13.78
2022-08-27T17:02:21.483Z,7.22
2022-08-27T17:05:33.955Z,11.38
2022-08-27T17:08:47.757Z,11.15
2022-08-27T17:11:47.053Z,14.60
2022-08-27T17:14:53.629Z,20.92
2022-08-27T17:18:02.201Z,19.32
2022-08-27T17:21:07.798Z,16.50
2022-08-27T17:24:15.278Z,23.27
2022-08-27T17:27:21.562Z,22.02
2022-08-27T17:30:29.822Z,13.32
2022-08-27T17:33:53.829Z,15.75
2022-08-27T17:37:00.991Z,26.75
2022-08-27T17:40:07.456Z,16.12
2022-08-27T17:43:14.471Z,14.98
2022-08-27T17:46:22.003Z,20.17
2022-08-27T17:49:28.344Z,16.85
2022-08-27T17:52:36.618Z,14.50
2022-08-27T17:55:42.367Z,18.73
2022-08-27T17:58:48.894Z,21.35
2022-08-27T18:01:57.219Z,22.95
2022-08-27T18:05:04.133Z,17.27
2022-08-27T18:08:10.292Z,40.15
2022-08-27T18:11:19.790Z,39.25
2022-08-27T18:14:25.522Z,38.13
2022-08-27T18:17:31.255Z,36.38
2022-08-27T18:20:40.756Z,36.63
2022-08-27T18:23:49.850Z,45.58
2022-08-27T18:26:57.944Z,32.78
2022-08-27T18:30:05.659Z,34.83
2022-08-27T18:33:11.806Z,41.18
2022-08-27T18:36:19.080Z,33.28
2022-08-27T18:39:25.756Z,41.33
2022-08-27T18:42:32.545Z,45.80
2022-08-27T18:45:43.862Z,34.10
2022-08-27T18:48:51.101Z,31.27
2022-08-27T18:52:00.489Z,39.95
2022-08-27T18:55:07.962Z,32.67
2022-08-27T18:58:14.329Z,29.72
2022-08-27T19:01:22.623Z,32.58
2022-08-27T19:04:28.938Z,31.00
2022-08-27T19:07:39.058Z,30.88
2022-08-27T19:10:43.767Z,33.75
2022-08-27T19:13:50.680Z,34.30
2022-08-27T19:17:05.474Z,35.85
2022-08-27T19:20:10.902Z,29.50
2022-08-27T19:23:16.078Z,31.23
2022-08-27T19:26:30.347Z,23.57
2022-08-27T19:29:36.814Z,28.73
2022-08-27T19:32:42.075Z,22.42
2022-08-27T19:35:52.366Z,25.85
2022-08-27T19:39:08.068Z,31.07
2022-08-27T19:42:16.552Z,24.18
2022-08-27T19:45:28.648Z,31.57
2022-08-27T19:48:35.840Z,24.55
2022-08-27T19:51:42.703Z,23.62
2022-08-27T19:55:10.235Z,23.00
2022-08-27T19:57:58.652Z,22.58
2022-08-27T20:01:05.079Z,22.73
2022-08-27T20:04:10.813Z,21.02
2022-08-27T20:07:15.975Z,22.87
2022-08-27T20:10:21.617Z,22.05
2022-08-27T20:13:33.020Z,21.97
2022-08-27T20:16:38.019Z,22.13
2022-08-27T20:19:47.717Z,28.57
2022-08-27T20:22:55.505Z,19.12
2022-08-27T20:26:01.678Z,21.68
2022-08-27T20:29:03.879Z,25.62
2022-08-27T20:32:03.740Z,15.83
2022-08-27T20:35:11.280Z,22.65
2022-08-27T20:38:16.836Z,17.25
2022-08-27T20:41:26.060Z,17.27
2022-08-27T20:44:32.429Z,19.40
2022-08-27T20:47:39.417Z,17.17
2022-08-27T20:50:46.695Z,16.10
2022-08-27T20:53:52.978Z,16.65
2022-08-27T20:56:59.543Z,16.02
2022-08-27T21:00:23.927Z,21.70
2022-08-27T21:03:31.031Z,17.05
2022-08-27T21:06:36.797Z,16.73
2022-08-27T21:09:55.447Z,19.92
2022-08-27T21:12:50.234Z,20.15
2022-08-27T21:15:56.916Z,17.27
2022-08-27T21:19:03.687Z,14.85
2022-08-27T21:22:08.816Z,14.70
2022-08-27T21:25:15.095Z,16.77
2022-08-27T21:28:22.172Z,19.55
2022-08-27T21:31:28.520Z,14.05
2022-08-27T21:34:35.338Z,18.07
2022-08-27T21:37:41.298Z,14.33
2022-08-27T21:40:46.880Z,13.03
2022-08-27T21:43:54.239Z,20.95
2022-08-27T21:47:00.811Z,18.17
2022-08-27T21:50:08.497Z,17.37
2022-08-27T21:53:14.257Z,16.05
2022-08-27T21:56:20.414Z,17.65
2022-08-27T21:59:26.974Z,19.02
2022-08-27T22:02:40.335Z,16.35
2022-08-27T22:05:45.157Z,13.35
2022-08-27T22:08:52.042Z,11.93
2022-08-27T22:11:59.418Z,18.62
2022-08-27T22:15:09.267Z,17.52
2022-08-27T22:18:15.837Z,13.95
2022-08-27T22:21:21.501Z,16.20
2022-08-27T22:24:27.881Z,14.68
2022-08-27T22:27:34.854Z,21.25
2022-08-27T22:30:41.852Z,21.70
2022-08-27T22:33:49.124Z,23.18
2022-08-27T22:36:56.819Z,23.62
2022-08-27T22:40:03.535Z,23.85
2022-08-27T22:43:10.378Z,26.50
2022-08-27T22:46:17.499Z,21.73
2022-08-27T22:49:24.032Z,22.55
2022-08-27T22:52:29.328Z,29.20
2022-08-27T22:55:38.000Z,23.22
2022-08-27T22:58:46.265Z,25.48
2022-08-27T23:01:55.268Z,30.35
2022-08-27T23:05:03.566Z,29.75
2022-08-27T23:08:09.053Z,35.63
2022-08-27T23:11:15.901Z,31.37
2022-08-27T23:14:22.789Z,30.68
2022-08-27T23:17:30.877Z,35.88
2022-08-27T23:20:37.857Z,35.35
2022-08-27T23:23:44.634Z,39.42
2022-08-27T23:27:08.631Z,36.85
2022-08-27T23:30:17.040Z,37.88
2022-08-27T23:33:17.842Z,31.20
2022-08-27T23:36:18.197Z,31.87
2022-08-27T23:39:23.857Z,30.15
2022-08-27T23:42:30.221Z,28.45
2022-08-27T23:45:40.584Z,31.02
2022-08-27T23:48:46.671Z,29.82
2022-08-27T23:51:52.290Z,24.10
2022-08-27T23:54:58.153Z,20.68
2022-08-27T23:58:04.677Z,25.48
